Time;durP1;ratioP1;P1;durP2;ratioP2;P2;SDS_P1;SDS_P2;PMS_P1;PMS_P2;Temp;Humidity;BMP_temperature;BMP_pressure;BME280_temperature;BME280_humidity;BME280_pressure;Samples;Min_cycle;Max_cycle;Signal;HPM_P1;HPM_P2
2021/08/31 00:02:10;;;;;;;8.03;7.30;;;18.10;99.90;;;;;;5072487;28;20470;-61
2021/08/31 00:04:37;;;;;;;10.23;6.83;;;18.00;99.90;;;;;;5072907;28;20465;-62
2021/08/31 00:07:04;;;;;;;10.50;7.80;;;18.00;99.90;;;;;;5072649;28;20476;-61
2021/08/31 00:09:31;;;;;;;8.50;7.70;;;18.00;99.90;;;;;;5072481;28;20478;-62
2021/08/31 00:11:59;;;;;;;7.33;6.73;;;18.00;99.90;;;;;;5072779;28;20462;-62
2021/08/31 00:14:26;;;;;;;8.67;7.77;;;18.00;99.90;;;;;;5072355;28;20496;-61
2021/08/31 00:16:53;;;;;;;8.63;7.33;;;18.00;99.90;;;;;;5072755;28;20466;-61
2021/08/31 00:19:20;;;;;;;7.80;6.97;;;18.00;99.90;;;;;;5072052;28;20494;-62
2021/08/31 00:21:47;;;;;;;10.00;8.50;;;18.00;99.90;;;;;;5072576;28;20476;-61
2021/08/31 00:24:14;;;;;;;8.80;7.00;;;18.00;99.90;;;;;;5072124;28;20470;-62
2021/08/31 00:26:41;;;;;;;8.17;7.20;;;17.90;99.90;;;;;;5072488;28;20976;-62
2021/08/31 00:29:09;;;;;;;7.27;6.57;;;18.00;99.90;;;;;;5072077;28;20478;-62
2021/08/31 00:31:36;;;;;;;9.03;7.27;;;17.90;99.90;;;;;;5072032;28;20454;-62
2021/08/31 00:34:03;;;;;;;10.00;7.00;;;18.00;99.90;;;;;;5072566;28;20803;-61
2021/08/31 00:36:30;;;;;;;8.30;6.47;;;18.00;99.90;;;;;;5061703;28;20469;-62
2021/08/31 00:38:57;;;;;;;7.53;6.93;;;18.00;99.90;;;;;;5052308;28;20481;-62
2021/08/31 00:41:24;;;;;;;8.90;7.30;;;18.00;99.90;;;;;;5051803;28;20471;-62
2021/08/31 00:43:51;;;;;;;9.03;8.17;;;18.00;99.90;;;;;;5052434;28;20478;-62
2021/08/31 00:46:22;;;;;;;7.93;7.00;;;18.00;99.90;;;;;;5051744;28;20471;-61
2021/08/31 00:48:49;;;;;;;7.47;6.87;;;18.00;99.90;;;;;;5052267;28;20479;-62
2021/08/31 00:51:18;;;;;;;7.33;6.10;;;18.00;99.90;;;;;;5051731;28;20481;-62
2021/08/31 00:53:45;;;;;;;6.83;6.13;;;18.00;99.90;;;;;;5054287;28;20486;-62
2021/08/31 00:56:12;;;;;;;8.33;7.47;;;18.00;99.90;;;;;;5063802;28;21224;-60
2021/08/31 00:58:39;;;;;;;7.63;6.33;;;18.00;99.90;;;;;;5072306;28;20808;-62
2021/08/31 01:01:06;;;;;;;7.43;6.73;;;18.00;99.90;;;;;;5072288;28;20695;-62
2021/08/31 01:03:34;;;;;;;8.47;7.50;;;18.00;99.90;;;;;;5071188;28;20462;-62
2021/08/31 01:06:03;;;;;;;7.40;6.80;;;18.00;99.90;;;;;;5059521;28;20463;-62
2021/08/31 01:08:30;;;;;;;10.03;7.17;;;18.00;99.90;;;;;;5051682;28;20475;-62
2021/08/31 01:10:59;;;;;;;8.90;7.63;;;18.00;99.90;;;;;;5052180;28;20463;-62
2021/08/31 01:13:26;;;;;;;8.50;6.60;;;17.90;99.90;;;;;;5051965;28;20466;-61
2021/08/31 01:15:53;;;;;;;7.97;6.93;;;18.00;99.90;;;;;;5052208;28;20482;-62
2021/08/31 01:18:22;;;;;;;7.80;6.97;;;18.00;99.90;;;;;;5051645;28;20471;-62
2021/08/31 01:20:53;;;;;;;7.23;6.53;;;18.00;99.90;;;;;;5052098;28;20541;-62
2021/08/31 01:23:20;;;;;;;8.60;7.00;;;18.00;99.90;;;;;;5051482;28;20568;-62
2021/08/31 01:25:49;;;;;;;10.03;8.10;;;17.90;99.90;;;;;;5055572;28;20465;-62
2021/08/31 01:28:18;;;;;;;8.20;7.37;;;17.90;99.90;;;;;;5071710;28;20907;-62
2021/08/31 01:30:46;;;;;;;8.53;7.63;;;17.90;99.90;;;;;;5071985;28;20641;-61
2021/08/31 01:33:13;;;;;;;8.03;7.33;;;17.90;99.90;;;;;;5075042;28;20462;-61
2021/08/31 01:35:40;;;;;;;9.50;7.30;;;17.90;99.90;;;;;;5075494;28;20538;-62
2021/08/31 01:38:07;;;;;;;11.20;8.57;;;17.90;99.90;;;;;;5075401;28;20466;-62
2021/08/31 01:40:34;;;;;;;8.30;7.07;;;17.90;99.90;;;;;;5075138;28;20476;-62
2021/08/31 01:43:02;;;;;;;8.07;7.30;;;17.90;99.90;;;;;;5075561;28;20512;-62
2021/08/31 01:45:29;;;;;;;8.93;7.67;;;17.90;99.90;;;;;;5074780;28;20553;-62
2021/08/31 01:47:56;;;;;;;9.80;7.80;;;17.90;99.90;;;;;;5075289;28;20462;-62
2021/08/31 01:50:24;;;;;;;10.40;7.20;;;17.90;99.90;;;;;;5074903;28;20496;-62
2021/08/31 01:52:51;;;;;;;11.70;7.67;;;17.80;99.90;;;;;;5075241;28;20462;-61
2021/08/31 01:55:17;;;;;;;9.00;7.83;;;17.90;99.90;;;;;;5059886;28;20505;-62
2021/08/31 01:57:44;;;;;;;7.80;6.90;;;17.80;99.90;;;;;;5071072;28;20458;-62
2021/08/31 02:00:13;;;;;;;9.50;8.50;;;17.80;99.90;;;;;;5075061;28;20469;-62
2021/08/31 02:02:40;;;;;;;8.60;7.70;;;17.80;99.90;;;;;;5074328;28;20418;-61
2021/08/31 02:05:08;;;;;;;8.70;7.77;;;17.80;99.90;;;;;;5075104;28;20232;-62
2021/08/31 02:07:35;;;;;;;10.70;7.33;;;17.80;99.90;;;;;;5074416;28;20811;-61
2021/08/31 02:10:02;;;;;;;8.77;7.13;;;17.90;99.90;;;;;;5061430;28;20481;-62
2021/08/31 02:12:28;;;;;;;10.17;8.60;;;17.80;99.90;;;;;;5054450;28;20466;-62
2021/08/31 02:14:55;;;;;;;9.70;7.80;;;17.80;99.90;;;;;;5054917;28;20469;-62
2021/08/31 02:17:24;;;;;;;9.00;7.60;;;17.80;99.90;;;;;;5054509;28;20472;-62
2021/08/31 02:19:50;;;;;;;9.23;8.33;;;17.80;99.90;;;;;;5054635;28;20470;-62
2021/08/31 02:22:17;;;;;;;8.63;7.83;;;17.80;99.90;;;;;;5054175;28;20471;-62
2021/08/31 02:24:44;;;;;;;10.70;8.40;;;17.80;99.90;;;;;;5054810;28;20464;-61
2021/08/31 02:27:12;;;;;;;8.30;7.50;;;17.80;99.90;;;;;;5054546;28;20815;-62
2021/08/31 02:29:39;;;;;;;8.90;8.00;;;17.80;99.90;;;;;;5054122;28;20463;-62
2021/08/31 02:32:06;;;;;;;9.10;7.70;;;17.80;99.90;;;;;;5054719;28;20470;-62
2021/08/31 02:34:35;;;;;;;10.50;8.10;;;17.80;99.90;;;;;;5054057;28;20455;-62
2021/08/31 02:37:02;;;;;;;9.37;7.07;;;17.80;99.90;;;;;;5073842;28;20481;-62
2021/08/31 02:39:29;;;;;;;12.30;10.37;;;17.70;99.90;;;;;;5053816;28;20467;-61
2021/08/31 02:41:55;;;;;;;12.30;10.37;;;17.70;99.90;;;;;;5054325;28;20463;-62
2021/08/31 02:44:22;;;;;;;9.03;8.27;;;17.70;99.90;;;;;;5052954;28;20469;-62
2021/08/31 02:46:49;;;;;;;8.70;7.90;;;17.70;99.90;;;;;;5060609;28;20467;-61
2021/08/31 02:49:16;;;;;;;8.50;7.60;;;17.70;99.90;;;;;;5073964;28;20477;-61
2021/08/31 02:51:44;;;;;;;10.17;8.37;;;17.70;99.90;;;;;;5073702;28;20458;-61
2021/08/31 02:54:11;;;;;;;12.43;8.43;;;17.70;99.90;;;;;;5061577;28;20466;-61
2021/08/31 02:56:38;;;;;;;10.07;8.30;;;17.60;99.90;;;;;;5061000;28;20467;-61
2021/08/31 02:59:05;;;;;;;11.23;9.00;;;17.60;99.90;;;;;;5058743;28;20467;-61
2021/08/31 03:01:34;;;;;;;8.40;7.53;;;17.60;99.90;;;;;;5071335;28;20523;-61
2021/08/31 03:04:02;;;;;;;9.50;8.53;;;17.60;99.90;;;;;;5054007;28;20895;-61
2021/08/31 03:06:30;;;;;;;10.77;9.70;;;17.60;99.90;;;;;;5053368;28;20964;-61
2021/08/31 03:09:00;;;;;;;11.33;9.57;;;17.60;99.90;;;;;;5053654;28;20467;-62
2021/08/31 03:11:27;;;;;;;11.93;9.17;;;17.60;99.90;;;;;;5053118;28;20969;-61
2021/08/31 03:13:55;;;;;;;7.77;6.87;;;17.60;99.90;;;;;;5053759;28;20473;-62
2021/08/31 03:16:22;;;;;;;8.87;7.93;;;17.60;99.90;;;;;;5053297;28;20817;-62
2021/08/31 03:18:48;;;;;;;8.83;8.03;;;17.60;99.90;;;;;;5053518;28;20550;-62
2021/08/31 03:21:15;;;;;;;11.00;9.33;;;17.60;99.90;;;;;;5053520;28;20463;-61
2021/08/31 03:23:42;;;;;;;9.00;8.13;;;17.60;99.90;;;;;;5052956;28;20476;-62
2021/08/31 03:26:10;;;;;;;11.23;8.63;;;17.60;99.90;;;;;;5053462;28;20463;-62
2021/08/31 03:28:37;;;;;;;8.50;7.70;;;17.50;99.90;;;;;;5065201;28;20462;-62
2021/08/31 03:31:04;;;;;;;10.63;9.23;;;17.50;99.90;;;;;;5073247;28;20466;-62
2021/08/31 03:33:31;;;;;;;10.73;8.73;;;17.50;99.90;;;;;;5072921;28;20466;-62
2021/08/31 03:35:58;;;;;;;7.73;7.03;;;17.50;99.90;;;;;;5073377;28;20477;-61
2021/08/31 03:38:25;;;;;;;11.27;8.83;;;17.50;99.90;;;;;;5072570;28;20477;-62
2021/08/31 03:40:52;;;;;;;10.40;8.70;;;17.50;99.90;;;;;;5073427;28;20803;-62
2021/08/31 03:43:20;;;;;;;9.23;8.33;;;17.50;99.90;;;;;;5073070;28;20812;-62
2021/08/31 03:45:47;;;;;;;9.30;7.30;;;17.50;99.90;;;;;;5072506;28;20469;-62
2021/08/31 03:48:14;;;;;;;9.90;8.90;;;17.50;99.90;;;;;;5073207;28;20473;-61
2021/08/31 03:50:40;;;;;;;10.27;9.20;;;17.50;99.90;;;;;;5072475;28;20972;-62
2021/08/31 03:53:07;;;;;;;9.03;8.13;;;17.50;99.90;;;;;;5072980;28;20473;-62
2021/08/31 03:55:34;;;;;;;10.37;9.20;;;17.50;99.90;;;;;;5061710;28;20477;-62
2021/08/31 03:58:05;;;;;;;9.87;8.87;;;17.50;99.90;;;;;;5053038;28;20482;-62
2021/08/31 04:00:33;;;;;;;12.03;10.80;;;17.50;99.90;;;;;;5052505;28;20517;-62
2021/08/31 04:03:00;;;;;;;11.83;10.27;;;17.50;99.90;;;;;;5067182;28;20481;-62
2021/08/31 04:05:27;;;;;;;12.90;10.97;;;17.50;99.90;;;;;;5072318;28;20815;-61
2021/08/31 04:07:54;;;;;;;16.93;13.57;;;17.50;99.90;;;;;;5072675;28;20473;-62
2021/08/31 04:10:21;;;;;;;10.60;9.10;;;17.50;99.90;;;;;;5072993;28;20471;-62
2021/08/31 04:12:48;;;;;;;18.63;11.90;;;17.50;99.90;;;;;;5072272;28;20469;-62
2021/08/31 04:15:15;;;;;;;16.83;14.07;;;17.50;99.90;;;;;;5072743;28;20824;-61
2021/08/31 04:17:43;;;;;;;22.67;16.20;;;17.50;99.90;;;;;;5072416;28;20470;-61
2021/08/31 04:20:11;;;;;;;15.07;13.07;;;17.50;99.90;;;;;;5072673;28;20500;-61
2021/08/31 04:22:38;;;;;;;11.70;9.57;;;17.50;99.90;;;;;;5072011;28;20465;-61
2021/08/31 04:25:06;;;;;;;8.20;7.40;;;17.50;99.90;;;;;;5072653;28;20471;-61
2021/08/31 04:27:32;;;;;;;9.63;8.73;;;17.50;99.90;;;;;;5071191;28;20434;-60
2021/08/31 04:29:59;;;;;;;9.67;8.67;;;17.50;99.90;;;;;;5072441;28;20224;-61
2021/08/31 04:32:26;;;;;;;8.57;7.67;;;17.60;99.90;;;;;;5072193;28;20468;-60
2021/08/31 04:34:56;;;;;;;8.40;7.60;;;17.60;99.90;;;;;;5072491;28;20472;-61
2021/08/31 04:37:23;;;;;;;10.07;7.17;;;17.60;99.90;;;;;;5072454;28;20517;-61
2021/08/31 04:39:49;;;;;;;9.63;7.87;;;17.60;99.90;;;;;;5065604;28;20468;-61
2021/08/31 04:42:16;;;;;;;9.27;7.30;;;17.60;99.90;;;;;;5052482;28;20976;-61
2021/08/31 04:44:43;;;;;;;12.00;8.40;;;17.50;99.90;;;;;;5052095;28;20467;-61
2021/08/31 04:47:10;;;;;;;8.67;7.90;;;17.50;99.90;;;;;;5052252;28;20475;-61
2021/08/31 04:49:37;;;;;;;7.97;7.27;;;17.50;99.90;;;;;;5063850;28;20485;-61
2021/08/31 04:52:06;;;;;;;8.17;7.37;;;17.50;99.90;;;;;;5072263;28;20455;-61
2021/08/31 04:54:33;;;;;;;8.90;8.10;;;17.50;99.90;;;;;;5071943;28;20464;-61
2021/08/31 04:57:00;;;;;;;9.13;7.83;;;17.50;99.90;;;;;;5059862;28;20813;-61
2021/08/31 04:59:27;;;;;;;11.23;8.00;;;17.50;99.90;;;;;;5052241;28;20977;-61
2021/08/31 05:01:54;;;;;;;8.47;7.57;;;17.50;99.90;;;;;;5057100;28;20465;-61
2021/08/31 05:04:21;;;;;;;8.00;7.00;;;17.50;99.90;;;;;;5072050;28;20467;-61
2021/08/31 05:06:47;;;;;;;7.80;7.00;;;17.50;99.90;;;;;;5073462;28;20473;-61
2021/08/31 05:09:16;;;;;;;9.77;7.93;;;17.50;99.90;;;;;;5075881;28;20477;-61
2021/08/31 05:11:42;;;;;;;8.13;7.40;;;17.50;99.90;;;;;;5075556;28;20469;-61
2021/08/31 05:14:09;;;;;;;7.57;6.87;;;17.50;99.90;;;;;;5075811;28;20472;-62
2021/08/31 05:16:36;;;;;;;9.03;7.37;;;17.50;99.90;;;;;;5062242;28;20796;-60
2021/08/31 05:19:03;;;;;;;8.53;7.70;;;17.50;99.90;;;;;;5055882;28;20459;-60
2021/08/31 05:21:31;;;;;;;10.43;7.83;;;17.50;99.90;;;;;;5056000;28;20471;-61
2021/08/31 05:23:58;;;;;;;9.03;8.23;;;17.50;99.90;;;;;;5071832;28;20941;-62
2021/08/31 05:26:26;;;;;;;9.57;8.27;;;17.50;99.90;;;;;;5075728;28;20462;-61
2021/08/31 05:28:53;;;;;;;9.87;8.97;;;17.50;99.90;;;;;;5075211;28;20470;-61
2021/08/31 05:31:20;;;;;;;10.47;9.47;;;17.50;99.90;;;;;;5073728;28;20948;-59
2021/08/31 05:33:46;;;;;;;12.80;11.00;;;17.50;99.90;;;;;;5055355;28;20471;-61
2021/08/31 05:36:13;;;;;;;15.03;11.73;;;17.50;99.90;;;;;;5055453;28;20471;-60
2021/08/31 05:38:40;;;;;;;13.17;11.07;;;17.40;99.90;;;;;;5055129;28;20475;-61
2021/08/31 05:41:07;;;;;;;17.97;15.20;;;17.40;99.90;;;;;;5055689;28;20797;-61
2021/08/31 05:43:35;;;;;;;16.60;13.90;;;17.40;99.90;;;;;;5055537;28;20812;-60
2021/08/31 05:46:02;;;;;;;15.00;11.30;;;17.40;99.90;;;;;;5054953;28;20477;-60
2021/08/31 05:48:30;;;;;;;10.13;8.83;;;17.40;99.90;;;;;;5055430;28;20520;-61
2021/08/31 05:50:57;;;;;;;10.60;9.50;;;17.40;99.90;;;;;;5061778;28;20549;-61
2021/08/31 05:53:24;;;;;;;8.77;7.87;;;17.40;99.90;;;;;;5075324;28;20472;-60
2021/08/31 05:55:51;;;;;;;8.57;7.83;;;17.40;99.90;;;;;;5073163;28;20811;-61
2021/08/31 05:58:18;;;;;;;8.50;7.60;;;17.40;99.90;;;;;;5065809;28;20878;-61
2021/08/31 06:00:46;;;;;;;8.10;7.37;;;17.40;99.90;;;;;;5065448;28;20463;-60
2021/08/31 06:03:13;;;;;;;8.33;7.50;;;17.40;99.90;;;;;;5078485;28;20481;-61
2021/08/31 06:05:40;;;;;;;8.30;7.50;;;17.40;99.90;;;;;;5073599;28;20477;-61
2021/08/31 06:08:07;;;;;;;10.87;8.93;;;17.50;99.90;;;;;;5074724;28;20467;-62
2021/08/31 06:10:34;;;;;;;9.40;8.40;;;17.50;99.90;;;;;;5074597;28;20473;-62
2021/08/31 06:13:00;;;;;;;11.00;8.97;;;17.50;99.90;;;;;;5074459;28;20462;-62
2021/08/31 06:15:27;;;;;;;10.07;9.10;;;17.50;99.90;;;;;;5069596;28;20466;-62
2021/08/31 06:17:56;;;;;;;9.83;8.80;;;17.50;99.90;;;;;;5073921;28;20473;-62
2021/08/31 06:20:22;;;;;;;13.30;8.40;;;17.50;99.90;;;;;;5074087;28;20469;-62
2021/08/31 06:22:49;;;;;;;8.97;8.13;;;17.50;99.90;;;;;;5074121;28;20462;-61
2021/08/31 06:25:16;;;;;;;7.33;6.70;;;17.50;99.90;;;;;;5073930;28;20472;-62
2021/08/31 06:27:43;;;;;;;9.30;7.50;;;17.50;99.90;;;;;;5074067;28;20473;-59
2021/08/31 06:30:11;;;;;;;7.97;7.17;;;17.40;99.90;;;;;;5074379;28;20480;-60
2021/08/31 06:32:37;;;;;;;9.23;8.27;;;17.50;99.90;;;;;;5073199;28;20485;-60
2021/08/31 06:35:06;;;;;;;13.80;8.87;;;17.50;99.90;;;;;;5073935;28;20455;-60
2021/08/31 06:37:33;;;;;;;9.80;7.33;;;17.50;99.90;;;;;;5074379;28;20975;-61
2021/08/31 06:40:00;;;;;;;9.20;7.00;;;17.50;99.90;;;;;;5073619;28;20478;-60
2021/08/31 06:42:27;;;;;;;10.00;8.30;;;17.50;99.90;;;;;;5074128;28;20476;-60
2021/08/31 06:44:54;;;;;;;8.33;7.53;;;17.50;99.90;;;;;;5073445;28;20470;-61
2021/08/31 06:47:21;;;;;;;9.00;8.20;;;17.50;99.90;;;;;;5074074;28;20987;-61
2021/08/31 06:49:47;;;;;;;8.57;7.77;;;17.60;99.90;;;;;;5053806;28;20485;-61
2021/08/31 06:52:15;;;;;;;7.67;6.93;;;17.60;99.90;;;;;;5054173;28;20463;-61
2021/08/31 06:54:42;;;;;;;13.37;9.97;;;17.60;99.90;;;;;;5053655;28;20467;-60
2021/08/31 06:57:10;;;;;;;9.03;8.13;;;17.60;99.90;;;;;;5062636;28;20825;-61
2021/08/31 06:59:37;;;;;;;9.17;8.33;;;17.60;99.90;;;;;;5069162;28;20956;-62
2021/08/31 07:02:04;;;;;;;12.17;10.70;;;17.60;99.90;;;;;;5073247;28;20909;-62
2021/08/31 07:04:31;;;;;;;14.10;12.70;;;17.60;99.90;;;;;;5073733;28;20476;-60
2021/08/31 07:06:58;;;;;;;15.57;13.93;;;17.60;99.90;;;;;;5072911;28;20800;-61
2021/08/31 07:09:26;;;;;;;10.70;9.70;;;17.60;99.90;;;;;;5073638;28;20470;-61
2021/08/31 07:11:54;;;;;;;9.30;8.13;;;17.70;99.90;;;;;;5073406;28;20470;-60
2021/08/31 07:14:21;;;;;;;8.00;7.20;;;17.70;99.90;;;;;;5073714;28;20501;-61
2021/08/31 07:16:48;;;;;;;8.33;7.53;;;17.80;99.90;;;;;;5073191;28;20474;-60
2021/08/31 07:19:15;;;;;;;7.63;6.93;;;17.80;99.90;;;;;;5073536;28;20979;-61
2021/08/31 07:21:42;;;;;;;8.30;7.33;;;17.90;99.90;;;;;;5073410;28;20557;-61
2021/08/31 07:24:08;;;;;;;9.53;8.63;;;18.00;99.90;;;;;;5072935;28;20477;-61
2021/08/31 07:26:37;;;;;;;7.90;7.20;;;18.00;99.90;;;;;;5073556;28;20462;-61
2021/08/31 07:29:03;;;;;;;8.07;7.37;;;18.10;99.90;;;;;;5072318;28;20473;-60
2021/08/31 07:31:30;;;;;;;9.83;8.47;;;18.20;99.90;;;;;;5073345;28;20787;-60
2021/08/31 07:33:57;;;;;;;8.90;8.00;;;18.20;99.90;;;;;;5071888;28;20454;-60
2021/08/31 07:36:24;;;;;;;8.23;7.53;;;18.30;99.90;;;;;;5093509;28;20488;-60
2021/08/31 07:38:53;;;;;;;8.40;7.57;;;18.30;99.90;;;;;;5059740;28;20814;-61
2021/08/31 07:41:20;;;;;;;9.27;7.23;;;18.30;99.90;;;;;;5053242;28;20471;-61
2021/08/31 07:43:48;;;;;;;8.47;7.73;;;18.40;99.90;;;;;;5052661;28;20481;-61
2021/08/31 07:46:15;;;;;;;10.50;9.50;;;18.40;99.90;;;;;;5053064;28;20473;-60
2021/08/31 07:48:42;;;;;;;10.00;7.70;;;18.50;99.90;;;;;;5052996;28;20475;-59
2021/08/31 07:51:09;;;;;;;7.20;6.50;;;18.50;99.90;;;;;;5052653;28;20470;-60
2021/08/31 07:53:36;;;;;;;9.83;8.83;;;18.60;99.90;;;;;;5053109;28;21145;-60
2021/08/31 07:56:04;;;;;;;10.10;9.20;;;18.60;99.90;;;;;;5057149;28;20803;-60
2021/08/31 07:58:30;;;;;;;8.27;7.47;;;18.70;99.90;;;;;;5072846;28;20478;-60
2021/08/31 08:00:59;;;;;;;6.77;6.23;;;18.80;99.90;;;;;;5072374;28;20462;-60
2021/08/31 08:03:25;;;;;;;7.27;6.67;;;18.90;99.90;;;;;;5072870;28;20462;-60
2021/08/31 08:05:52;;;;;;;7.83;7.10;;;18.90;99.90;;;;;;5072303;28;20459;-61
2021/08/31 08:08:19;;;;;;;8.50;7.53;;;19.00;99.90;;;;;;5072763;28;20470;-61
2021/08/31 08:10:46;;;;;;;7.80;7.00;;;19.00;99.90;;;;;;5072666;28;20466;-61
2021/08/31 08:13:13;;;;;;;7.90;6.90;;;19.00;99.90;;;;;;5072265;28;20473;-61
2021/08/31 08:15:40;;;;;;;12.53;9.03;;;19.10;99.90;;;;;;5072854;28;20553;-61
2021/08/31 08:18:08;;;;;;;10.33;8.90;;;19.10;99.90;;;;;;5072256;28;20473;-61
2021/08/31 08:20:35;;;;;;;10.33;8.20;;;19.20;99.90;;;;;;5072706;28;20466;-61
2021/08/31 08:23:02;;;;;;;6.97;6.27;;;19.20;99.90;;;;;;5072383;28;20470;-61
2021/08/31 08:25:29;;;;;;;7.90;7.20;;;19.30;99.90;;;;;;5072405;28;20463;-60
2021/08/31 08:27:56;;;;;;;9.30;8.40;;;19.30;99.90;;;;;;5072169;28;20466;-59
2021/08/31 08:30:23;;;;;;;8.77;7.27;;;19.30;99.90;;;;;;5072584;28;20462;-60
2021/08/31 08:32:50;;;;;;;6.73;6.13;;;19.40;99.90;;;;;;5072526;28;20466;-61
2021/08/31 08:35:18;;;;;;;10.13;7.43;;;19.40;99.90;;;;;;5071744;28;20451;-61
2021/08/31 08:37:45;;;;;;;6.97;6.40;;;19.40;99.90;;;;;;5072549;28;20843;-62
2021/08/31 08:40:12;;;;;;;7.27;6.67;;;19.40;99.90;;;;;;5054815;28;20475;-62
2021/08/31 08:42:40;;;;;;;8.47;7.13;;;19.40;99.90;;;;;;5055896;28;20810;-62
2021/08/31 08:45:08;;;;;;;8.43;7.70;;;19.40;99.90;;;;;;5055998;28;20482;-62
2021/08/31 08:47:35;;;;;;;7.47;6.60;;;19.50;99.90;;;;;;5069961;28;20458;-61
2021/08/31 08:50:02;;;;;;;7.20;6.43;;;19.50;99.90;;;;;;5076024;28;20476;-61
2021/08/31 08:52:31;;;;;;;8.70;7.80;;;19.50;99.90;;;;;;5076315;28;20807;-62
2021/08/31 08:54:57;;;;;;;9.03;8.23;;;19.50;99.90;;;;;;5076034;28;20461;-59
2021/08/31 08:57:29;;;;;;;15.23;11.83;;;19.50;99.90;;;;;;5063692;28;20455;-62
2021/08/31 08:59:56;;;;;;;13.33;11.80;;;19.50;99.90;;;;;;5056543;28;20815;-62
2021/08/31 09:02:43;;;;;;;7.90;7.10;;;19.60;99.90;;;;;;5056079;28;20463;-61
2021/08/31 09:05:12;;;;;;;8.10;7.40;;;19.70;99.90;;;;;;5054479;28;20617;-61
2021/08/31 09:07:42;;;;;;;8.17;7.37;;;19.70;99.90;;;;;;5056049;28;20463;-61
2021/08/31 09:10:15;;;;;;;8.20;7.37;;;19.70;99.90;;;;;;5055591;28;20618;-61
2021/08/31 09:12:45;;;;;;;9.60;8.70;;;19.80;99.90;;;;;;5056080;28;20884;-61
2021/08/31 09:15:28;;;;;;;7.90;7.20;;;19.90;99.90;;;;;;5055501;28;20542;-61
2021/08/31 09:18:16;;;;;;;7.93;7.17;;;20.00;99.90;;;;;;5055515;28;20542;-59
2021/08/31 09:20:50;;;;;;;9.00;8.20;;;20.10;99.90;;;;;;5055818;28;20550;-61
2021/08/31 09:23:20;;;;;;;7.80;6.40;;;20.10;99.90;;;;;;5055414;28;20473;-61
2021/08/31 09:25:49;;;;;;;7.70;7.00;;;20.20;99.90;;;;;;5055654;28;21027;-61
2021/08/31 09:28:26;;;;;;;7.30;6.60;;;20.20;99.90;;;;;;5055253;28;20808;-61
2021/08/31 09:31:02;;;;;;;8.53;7.70;;;20.20;99.90;;;;;;5055790;28;20481;-61
2021/08/31 09:33:31;;;;;;;6.87;6.17;;;20.30;99.90;;;;;;5055604;28;20555;-61
2021/08/31 09:36:10;;;;;;;7.97;7.37;;;20.30;99.90;;;;;;5055558;28;20467;-61
2021/08/31 09:38:53;;;;;;;7.90;7.10;;;20.30;99.90;;;;;;5055205;28;20462;-61
2021/08/31 09:41:32;;;;;;;7.67;7.07;;;20.30;99.90;;;;;;5054858;28;20471;-61
2021/08/31 09:44:01;;;;;;;7.80;7.10;;;20.30;99.90;;;;;;5055438;28;20956;-61
2021/08/31 09:46:47;;;;;;;8.00;7.20;;;20.30;99.90;;;;;;5054892;28;20470;-61
2021/08/31 09:49:21;;;;;;;9.17;8.33;;;20.30;99.90;;;;;;5055000;28;20463;-61
2021/08/31 09:52:07;;;;;;;8.00;7.20;;;20.30;99.90;;;;;;5054707;28;20451;-61
2021/08/31 09:54:38;;;;;;;7.30;6.60;;;20.30;99.90;;;;;;5054722;28;20475;-61
2021/08/31 09:57:28;;;;;;;10.50;8.00;;;20.30;99.90;;;;;;5055048;28;20467;-61
2021/08/31 09:59:55;;;;;;;8.80;7.60;;;20.30;99.90;;;;;;5055051;28;20465;-59
2021/08/31 10:02:23;;;;;;;7.43;6.73;;;20.30;99.90;;;;;;5055122;28;20465;-61
2021/08/31 10:04:51;;;;;;;7.73;6.90;;;20.40;99.90;;;;;;5055136;28;20471;-60
2021/08/31 10:07:18;;;;;;;8.60;7.70;;;20.40;99.90;;;;;;5054512;28;20808;-60
2021/08/31 10:09:48;;;;;;;7.03;6.43;;;20.40;99.90;;;;;;5054933;28;20477;-60
2021/08/31 10:12:16;;;;;;;8.23;7.33;;;20.40;99.90;;;;;;5054488;28;20477;-61
2021/08/31 10:14:45;;;;;;;6.50;5.90;;;20.40;99.90;;;;;;5054912;28;20463;-60
2021/08/31 10:17:13;;;;;;;7.90;7.10;;;20.40;99.90;;;;;;5054346;28;20580;-60
2021/08/31 10:19:42;;;;;;;7.17;6.40;;;20.40;99.90;;;;;;5054692;28;20542;-61
2021/08/31 10:22:11;;;;;;;8.60;6.73;;;20.50;99.90;;;;;;5054190;28;20805;-60
2021/08/31 10:24:38;;;;;;;8.87;7.10;;;20.50;99.90;;;;;;5054597;28;20463;-61
2021/08/31 10:27:34;;;;;;;8.80;7.17;;;20.60;99.90;;;;;;5054273;28;20983;-60
2021/08/31 10:30:34;;;;;;;8.10;7.17;;;20.60;99.90;;;;;;5054175;28;20473;-59
2021/08/31 10:33:04;;;;;;;7.33;6.63;;;20.60;99.90;;;;;;5012549;28;20876;-61
2021/08/31 10:35:55;;;;;;;7.50;6.90;;;20.60;99.90;;;;;;5046231;28;20464;-61
2021/08/31 10:38:54;;;;;;;7.43;6.80;;;20.50;99.90;;;;;;5054105;28;20463;-61
2021/08/31 10:41:46;;;;;;;8.43;6.73;;;20.50;99.90;;;;;;5053876;28;20459;-61
2021/08/31 10:44:41;;;;;;;9.10;7.33;;;20.60;99.90;;;;;;5053989;28;20485;-61
2021/08/31 10:47:20;;;;;;;7.63;6.83;;;20.60;99.90;;;;;;5053629;28;20455;-60
2021/08/31 10:50:21;;;;;;;9.27;8.37;;;20.60;99.90;;;;;;5054019;28;20479;-60
2021/08/31 10:52:51;;;;;;;8.03;7.23;;;20.60;99.90;;;;;;5053911;28;20973;-60
2021/08/31 10:55:45;;;;;;;7.37;6.67;;;20.60;99.90;;;;;;5054097;28;20467;-61
2021/08/31 10:58:37;;;;;;;7.30;6.60;;;20.70;99.90;;;;;;5044268;28;21306;-61
2021/08/31 11:01:14;;;;;;;7.13;6.43;;;20.70;99.90;;;;;;5053818;28;20479;-61
2021/08/31 11:03:41;;;;;;;8.03;7.23;;;20.80;99.90;;;;;;5053065;28;20529;-60
2021/08/31 11:06:32;;;;;;;6.80;6.20;;;20.80;99.90;;;;;;5053427;28;20534;-60
2021/08/31 11:09:23;;;;;;;8.70;6.67;;;20.90;99.90;;;;;;5053489;28;20953;-60
2021/08/31 11:12:16;;;;;;;8.40;7.67;;;21.00;99.90;;;;;;5053326;28;20471;-61
2021/08/31 11:14:46;;;;;;;7.83;7.23;;;21.00;99.90;;;;;;5053742;28;20800;-61
2021/08/31 11:17:29;;;;;;;8.10;7.13;;;21.10;99.90;;;;;;5053258;28;20518;-60
2021/08/31 11:20:10;;;;;;;7.50;6.30;;;21.10;99.90;;;;;;5053103;28;20471;-61
2021/08/31 11:22:37;;;;;;;7.43;6.83;;;21.10;99.90;;;;;;5053590;28;20466;-60
2021/08/31 11:25:05;;;;;;;7.97;7.27;;;21.20;99.90;;;;;;5053089;28;20476;-61
2021/08/31 11:27:49;;;;;;;7.60;6.90;;;21.20;99.90;;;;;;5053377;28;20471;-61
2021/08/31 11:30:16;;;;;;;7.07;6.47;;;21.20;99.90;;;;;;5053430;28;20455;-61
2021/08/31 11:32:45;;;;;;;6.43;5.80;;;21.30;99.90;;;;;;5053501;28;20475;-61
2021/08/31 11:35:12;;;;;;;7.10;6.50;;;21.40;99.90;;;;;;5052897;28;20792;-61
2021/08/31 11:37:49;;;;;;;10.87;6.60;;;21.40;99.90;;;;;;5053336;28;20965;-61
2021/08/31 11:40:17;;;;;;;6.97;6.20;;;21.40;99.90;;;;;;5052998;28;20517;-61
2021/08/31 11:42:52;;;;;;;7.97;6.90;;;21.40;99.90;;;;;;5053137;28;20471;-60
2021/08/31 11:45:19;;;;;;;6.53;5.97;;;21.40;99.90;;;;;;5052761;28;20465;-61
2021/08/31 11:47:53;;;;;;;6.73;6.10;;;21.40;99.90;;;;;;5053287;28;20493;-61
2021/08/31 11:50:22;;;;;;;6.50;6.00;;;21.40;99.90;;;;;;5052834;28;20466;-61
2021/08/31 11:52:49;;;;;;;6.10;5.57;;;21.40;99.90;;;;;;5052966;28;20482;-60
2021/08/31 11:55:23;;;;;;;8.00;6.83;;;21.40;99.90;;;;;;5052603;28;20451;-60
2021/08/31 11:57:50;;;;;;;7.37;6.10;;;21.40;99.90;;;;;;5053032;28;20494;-60
2021/08/31 12:00:17;;;;;;;6.63;5.80;;;21.40;99.90;;;;;;5052519;28;20485;-60
2021/08/31 12:02:45;;;;;;;7.97;5.93;;;21.40;99.90;;;;;;5052955;28;20973;-60
2021/08/31 12:05:13;;;;;;;6.60;5.63;;;21.40;99.90;;;;;;5052404;28;20958;-61
2021/08/31 12:07:42;;;;;;;5.73;5.17;;;21.40;99.90;;;;;;5052661;28;20474;-61
2021/08/31 12:10:11;;;;;;;6.53;5.37;;;21.40;99.90;;;;;;5052353;28;20555;-60
2021/08/31 12:12:42;;;;;;;5.57;5.07;;;21.40;99.90;;;;;;5052964;28;20467;-61
2021/08/31 12:15:10;;;;;;;6.37;5.73;;;21.30;99.90;;;;;;5052065;28;20462;-61
2021/08/31 12:17:41;;;;;;;5.97;5.57;;;21.30;99.90;;;;;;5052563;28;20483;-61
2021/08/31 12:20:11;;;;;;;7.20;6.50;;;21.20;99.90;;;;;;5052195;28;20467;-61
2021/08/31 12:22:42;;;;;;;6.67;6.10;;;21.20;99.90;;;;;;5052353;28;20463;-60
2021/08/31 12:25:11;;;;;;;6.50;5.60;;;21.20;99.90;;;;;;5052007;28;20816;-60
2021/08/31 12:27:40;;;;;;;7.90;6.30;;;21.10;99.90;;;;;;5052748;28;20463;-61
2021/08/31 12:30:10;;;;;;;6.87;5.20;;;21.10;99.90;;;;;;5060176;28;20484;-60
2021/08/31 12:32:37;;;;;;;5.07;4.67;;;21.00;99.90;;;;;;5065693;28;20481;-60
2021/08/31 12:35:25;;;;;;;5.67;5.17;;;21.00;99.90;;;;;;5071194;28;20976;-61
2021/08/31 12:38:13;;;;;;;6.27;5.60;;;21.00;99.90;;;;;;5071595;28;20485;-60
2021/08/31 12:40:57;;;;;;;6.10;5.50;;;21.00;99.90;;;;;;5072398;28;20466;-59
2021/08/31 12:43:26;;;;;;;5.33;4.80;;;21.00;99.90;;;;;;5065142;28;20786;-60
2021/08/31 12:45:56;;;;;;;6.37;5.77;;;21.00;99.90;;;;;;5071537;28;20943;-61
2021/08/31 12:48:35;;;;;;;6.10;5.37;;;21.10;99.90;;;;;;5069001;28;20873;-61
2021/08/31 12:51:05;;;;;;;6.53;5.93;;;21.10;99.90;;;;;;5070808;28;20860;-61
2021/08/31 12:53:37;;;;;;;5.70;5.20;;;21.10;99.90;;;;;;5064265;28;20470;-61
2021/08/31 12:56:06;;;;;;;5.70;5.20;;;21.10;99.90;;;;;;5071636;28;20462;-61